createdAt,value
2018-09-06T00:00:18.497Z,97.00
2018-09-06T00:02:46.900Z,96.90
2018-09-06T00:05:15.349Z,96.70
2018-09-06T00:07:43.816Z,96.60
2018-09-06T00:10:12.265Z,96.30
2018-09-06T00:12:40.824Z,96.30
2018-09-06T00:15:09.251Z,96.40
2018-09-06T00:17:37.646Z,96.40
2018-09-06T00:20:06.057Z,96.60
2018-09-06T00:22:34.435Z,96.50
2018-09-06T00:25:02.855Z,96.60
2018-09-06T00:27:31.280Z,96.50
2018-09-06T00:29:59.685Z,96.50
2018-09-06T00:32:28.271Z,96.40
2018-09-06T00:34:56.664Z,96.50
2018-09-06T00:37:25.102Z,96.50
2018-09-06T00:39:53.904Z,96.50
2018-09-06T00:42:22.373Z,96.80
2018-09-06T00:44:51.004Z,97.20
2018-09-06T00:47:19.410Z,97.30
2018-09-06T00:49:47.782Z,97.60
2018-09-06T00:52:16.216Z,97.70
2018-09-06T00:54:44.693Z,97.80
2018-09-06T00:57:13.207Z,97.90
2018-09-06T00:59:41.597Z,98.00
2018-09-06T01:02:10.159Z,98.10
2018-09-06T01:04:38.566Z,98.10
2018-09-06T01:07:07.039Z,98.40
2018-09-06T01:09:35.602Z,98.70
2018-09-06T01:12:04.016Z,98.50
2018-09-06T01:14:32.409Z,98.60
2018-09-06T01:17:00.820Z,98.70
2018-09-06T01:19:29.252Z,98.80
2018-09-06T01:21:57.825Z,98.80
2018-09-06T01:24:26.204Z,98.90
2018-09-06T01:26:54.627Z,99.10
2018-09-06T01:29:23.227Z,99.20
2018-09-06T01:31:51.629Z,99.40
2018-09-06T01:34:20.004Z,99.40
2018-09-06T01:36:48.623Z,99.50
2018-09-06T01:39:17.162Z,99.60
2018-09-06T01:41:45.703Z,99.60
2018-09-06T01:44:14.108Z,99.80
2018-09-06T01:46:42.492Z,99.80
2018-09-06T01:49:11.063Z,99.90
2018-09-06T01:51:39.467Z,99.90
2018-09-06T01:54:07.918Z,99.90
2018-09-06T01:56:36.289Z,99.90
2018-09-06T01:59:04.703Z,99.90
2018-09-06T02:01:33.080Z,99.90
2018-09-06T02:04:01.508Z,99.90
2018-09-06T02:06:29.954Z,99.90
2018-09-06T02:08:58.352Z,99.90
2018-09-06T02:11:26.697Z,99.90
2018-09-06T02:13:55.092Z,99.90
2018-09-06T02:16:23.461Z,99.90
2018-09-06T02:18:51.820Z,99.90
2018-09-06T02:21:20.229Z,99.90
2018-09-06T02:23:48.620Z,99.90
2018-09-06T02:26:17.138Z,99.90
2018-09-06T02:28:45.513Z,99.90
2018-09-06T02:31:14.183Z,99.90
2018-09-06T02:33:42.568Z,99.90
2018-09-06T02:36:10.925Z,99.90
2018-09-06T02:38:39.310Z,99.90
2018-09-06T02:41:07.766Z,99.90
2018-09-06T02:43:36.142Z,99.90
2018-09-06T02:46:04.707Z,99.90
2018-09-06T02:48:40.373Z,99.90
2018-09-06T02:51:14.050Z,99.90
2018-09-06T02:53:42.489Z,99.90
2018-09-06T02:56:11.511Z,99.90
2018-09-06T02:58:40.161Z,99.90
2018-09-06T03:01:08.704Z,99.90
2018-09-06T03:03:37.123Z,99.90
2018-09-06T03:06:05.601Z,99.90
2018-09-06T03:08:34.039Z,99.90
2018-09-06T03:11:07.895Z,99.90
2018-09-06T03:13:36.307Z,99.90
2018-09-06T03:16:04.685Z,99.90
2018-09-06T03:18:33.039Z,99.90
2018-09-06T03:21:01.448Z,99.90
2018-09-06T03:23:29.818Z,99.90
2018-09-06T03:25:58.166Z,99.90
2018-09-06T03:28:26.554Z,99.90
2018-09-06T03:30:54.915Z,99.90
2018-09-06T03:33:23.324Z,99.90
2018-09-06T03:35:51.868Z,99.90
2018-09-06T03:38:20.199Z,99.90
2018-09-06T03:40:48.676Z,99.90
2018-09-06T03:43:17.050Z,99.90
2018-09-06T03:45:45.414Z,99.90
2018-09-06T03:48:13.899Z,99.90
2018-09-06T03:50:42.229Z,99.90
2018-09-06T03:53:10.616Z,99.90
2018-09-06T03:55:38.992Z,99.90
2018-09-06T03:58:07.397Z,99.90
2018-09-06T04:00:35.787Z,99.90
2018-09-06T04:03:04.153Z,99.90
2018-09-06T04:05:32.587Z,99.90
2018-09-06T04:08:00.934Z,99.90
2018-09-06T04:10:29.478Z,99.90
2018-09-06T04:12:57.853Z,99.90
2018-09-06T04:15:26.186Z,99.90
2018-09-06T04:17:54.554Z,99.90
2018-09-06T04:20:22.933Z,99.90
2018-09-06T04:22:52.551Z,99.90
2018-09-06T04:25:20.965Z,99.90
2018-09-06T04:27:49.735Z,99.90
2018-09-06T04:30:18.150Z,99.90
2018-09-06T04:32:46.594Z,99.90
2018-09-06T04:35:14.986Z,99.90
2018-09-06T04:37:43.534Z,99.90
2018-09-06T04:40:11.890Z,99.90
2018-09-06T04:42:40.286Z,99.90
2018-09-06T04:45:08.790Z,99.90
2018-09-06T04:47:37.143Z,99.90
2018-09-06T04:50:05.516Z,99.90
2018-09-06T04:52:33.913Z,99.90
2018-09-06T04:55:02.263Z,99.90
2018-09-06T04:57:30.622Z,99.90
2018-09-06T04:59:59.039Z,99.90
2018-09-06T05:02:27.360Z,99.90
2018-09-06T05:04:55.701Z,99.90
2018-09-06T05:07:24.106Z,99.90
2018-09-06T05:09:52.445Z,99.90
2018-09-06T05:12:20.849Z,99.90
2018-09-06T05:14:49.270Z,99.90
2018-09-06T05:17:17.637Z,99.90
2018-09-06T05:19:46.048Z,99.90
2018-09-06T05:22:14.425Z,99.90
2018-09-06T05:24:42.842Z,99.90
2018-09-06T05:27:11.194Z,99.90
2018-09-06T05:29:39.542Z,99.90
2018-09-06T05:32:08.047Z,99.90
2018-09-06T05:34:36.415Z,99.90
2018-09-06T05:37:05.393Z,99.90
2018-09-06T05:39:34.200Z,99.90
2018-09-06T05:42:02.569Z,99.90
2018-09-06T05:44:30.946Z,99.90
2018-09-06T05:46:59.362Z,99.90
2018-09-06T05:49:27.713Z,99.90
2018-09-06T05:51:56.071Z,99.90
2018-09-06T05:54:24.586Z,99.90
2018-09-06T05:56:52.946Z,99.90
2018-09-06T05:59:21.318Z,99.90
2018-09-06T06:01:49.714Z,99.90
2018-09-06T06:04:18.104Z,99.90
2018-09-06T06:06:46.466Z,99.90
2018-09-06T06:09:14.898Z,99.90
2018-09-06T06:11:43.291Z,99.90
2018-09-06T06:14:11.631Z,99.90
2018-09-06T06:16:40.158Z,99.90
2018-09-06T06:19:08.530Z,99.90
2018-09-06T06:21:36.963Z,99.90
2018-09-06T06:24:05.370Z,99.90
2018-09-06T06:26:33.737Z,99.90
2018-09-06T06:29:02.131Z,99.90
2018-09-06T06:31:30.475Z,99.90
2018-09-06T06:33:59.063Z,99.90
2018-09-06T06:36:27.377Z,99.90
2018-09-06T06:38:55.723Z,99.90
2018-09-06T06:41:24.187Z,99.90
2018-09-06T06:43:52.590Z,99.90
2018-09-06T06:46:20.966Z,99.90
2018-09-06T06:48:49.539Z,99.90
2018-09-06T06:51:17.895Z,99.90
2018-09-06T06:53:46.254Z,99.90
2018-09-06T06:56:14.766Z,99.90
2018-09-06T06:58:43.320Z,99.90
2018-09-06T07:01:11.481Z,99.90
2018-09-06T07:03:39.991Z,99.90
2018-09-06T07:06:08.345Z,99.90
2018-09-06T07:08:36.684Z,99.90
2018-09-06T07:11:05.090Z,99.90
2018-09-06T07:13:33.481Z,99.90
2018-09-06T07:16:02.101Z,99.90
2018-09-06T07:18:30.559Z,99.90
2018-09-06T07:20:58.945Z,99.90
2018-09-06T07:23:27.352Z,99.90
2018-09-06T07:25:55.763Z,99.90
2018-09-06T07:28:24.139Z,99.90
2018-09-06T07:30:52.598Z,99.90
2018-09-06T07:33:20.970Z,99.90
2018-09-06T07:35:49.551Z,99.90
2018-09-06T07:38:17.929Z,99.90
2018-09-06T07:40:46.277Z,99.90
2018-09-06T07:43:14.687Z,99.90
2018-09-06T07:45:43.136Z,99.90
2018-09-06T07:48:11.479Z,99.90
2018-09-06T07:50:40.011Z,99.90
2018-09-06T07:53:08.404Z,99.90
2018-09-06T07:55:36.770Z,99.90
2018-09-06T07:58:05.321Z,99.90
2018-09-06T08:00:33.677Z,99.90
2018-09-06T08:03:02.083Z,99.90
2018-09-06T08:05:30.543Z,99.90
2018-09-06T08:07:58.931Z,99.90
2018-09-06T08:10:27.294Z,99.90
2018-09-06T08:12:55.824Z,99.90
2018-09-06T08:15:24.222Z,99.90
2018-09-06T08:17:52.602Z,99.90
2018-09-06T08:20:20.995Z,99.90
2018-09-06T08:22:49.370Z,99.90
2018-09-06T08:25:17.745Z,99.90
2018-09-06T08:27:46.125Z,99.90
2018-09-06T08:30:14.474Z,99.90
2018-09-06T08:32:42.856Z,99.90
2018-09-06T08:35:11.286Z,99.90
2018-09-06T08:37:39.628Z,99.90
2018-09-06T08:40:08.066Z,99.90
2018-09-06T08:42:36.423Z,99.90
2018-09-06T08:45:04.866Z,99.90
2018-09-06T08:47:33.484Z,99.90
2018-09-06T08:50:01.818Z,99.90
2018-09-06T08:52:30.294Z,99.90
2018-09-06T08:54:58.810Z,99.90
2018-09-06T08:57:27.162Z,99.90
2018-09-06T08:59:55.514Z,99.90
2018-09-06T09:02:23.980Z,99.90
2018-09-06T09:04:52.331Z,99.90
2018-09-06T09:07:20.908Z,99.90
2018-09-06T09:09:49.284Z,99.90
2018-09-06T09:12:17.722Z,99.90
2018-09-06T09:14:46.234Z,99.90
2018-09-06T09:17:14.583Z,99.90
2018-09-06T09:19:42.964Z,99.90
2018-09-06T09:22:11.639Z,99.90
2018-09-06T09:24:39.929Z,99.90
2018-09-06T09:27:08.298Z,99.90
2018-09-06T09:29:36.890Z,99.90
2018-09-06T09:32:05.246Z,99.90
2018-09-06T09:34:33.660Z,99.90
2018-09-06T09:37:02.124Z,99.90
2018-09-06T09:39:30.478Z,99.90
2018-09-06T09:41:58.910Z,99.90
2018-09-06T09:44:27.535Z,99.90
2018-09-06T09:49:23.499Z,99.90
2018-09-06T09:51:51.898Z,99.90
2018-09-06T09:54:20.263Z,99.90
2018-09-06T09:56:48.973Z,99.90
2018-09-06T09:59:17.326Z,99.90
2018-09-06T10:01:51.236Z,99.90
2018-09-06T10:05:24.426Z,99.90
2018-09-06T10:07:56.884Z,99.90
2018-09-06T10:10:25.645Z,99.90
2018-09-06T10:12:54.033Z,99.90
2018-09-06T10:15:22.592Z,99.90
2018-09-06T10:17:51.001Z,99.90
2018-09-06T10:20:19.438Z,99.90
2018-09-06T10:22:47.817Z,99.90
2018-09-06T10:25:16.159Z,99.90
2018-09-06T10:27:44.534Z,99.90
2018-09-06T10:30:12.970Z,99.90
2018-09-06T10:32:41.354Z,99.90
2018-09-06T10:35:09.691Z,99.90
2018-09-06T10:37:38.126Z,99.90
2018-09-06T10:40:06.702Z,99.90
2018-09-06T10:42:34.954Z,99.90
2018-09-06T10:45:03.439Z,99.90
2018-09-06T10:47:31.790Z,99.90
2018-09-06T10:50:00.183Z,99.90
2018-09-06T10:52:28.537Z,99.90
2018-09-06T10:54:56.929Z,99.90
2018-09-06T10:57:25.275Z,99.90
2018-09-06T10:59:53.868Z,99.90
2018-09-06T11:02:23.162Z,99.90
2018-09-06T11:04:51.566Z,99.90
2018-09-06T11:07:19.944Z,99.90
2018-09-06T11:09:48.369Z,99.90
2018-09-06T11:12:16.712Z,99.90
2018-09-06T11:14:45.178Z,99.90
2018-09-06T11:17:13.550Z,99.90
2018-09-06T11:19:41.975Z,99.90
2018-09-06T11:22:10.614Z,99.90
2018-09-06T11:24:38.705Z,99.90
2018-09-06T11:27:07.069Z,99.90
2018-09-06T11:29:35.456Z,99.90
2018-09-06T11:32:03.825Z,99.90
2018-09-06T11:34:32.617Z,99.90
2018-09-06T11:37:00.974Z,99.90
2018-09-06T11:39:29.527Z,99.90
2018-09-06T11:41:57.922Z,99.90
2018-09-06T11:44:26.277Z,99.90
2018-09-06T11:46:54.723Z,99.90
2018-09-06T11:49:23.054Z,99.90
2018-09-06T11:51:51.486Z,99.90
2018-09-06T11:54:19.939Z,99.90
2018-09-06T11:56:48.318Z,99.90
2018-09-06T11:59:16.690Z,99.90
2018-09-06T12:01:45.047Z,99.90
2018-09-06T12:04:13.497Z,99.90
2018-09-06T12:06:41.887Z,99.90
2018-09-06T12:09:10.328Z,99.90
2018-09-06T12:11:38.696Z,99.90
2018-09-06T12:14:07.175Z,99.90
2018-09-06T12:16:35.532Z,99.90
2018-09-06T12:19:04.657Z,99.90
2018-09-06T12:21:33.086Z,99.90
2018-09-06T12:24:01.483Z,99.90
2018-09-06T12:26:29.805Z,99.90
2018-09-06T12:28:58.317Z,99.90
2018-09-06T12:31:26.693Z,99.90
2018-09-06T12:33:55.063Z,99.90
2018-09-06T12:36:23.457Z,99.90
2018-09-06T12:38:51.799Z,99.90
2018-09-06T12:41:20.186Z,99.90
2018-09-06T12:43:48.586Z,99.90
2018-09-06T12:46:16.985Z,99.90
2018-09-06T12:48:45.419Z,99.90
2018-09-06T12:51:13.791Z,99.90
2018-09-06T12:53:42.196Z,99.90
2018-09-06T12:56:10.737Z,99.90
2018-09-06T12:58:39.087Z,99.90
2018-09-06T13:01:07.477Z,99.90
2018-09-06T13:03:35.854Z,99.90
2018-09-06T13:06:04.218Z,99.90
2018-09-06T13:08:32.565Z,99.90
2018-09-06T13:11:01.163Z,99.90
2018-09-06T13:13:29.546Z,99.90
2018-09-06T13:15:57.880Z,99.90
2018-09-06T13:18:26.433Z,99.90
2018-09-06T13:20:54.740Z,99.90
2018-09-06T13:23:23.097Z,99.90
2018-09-06T13:25:51.479Z,99.90
2018-09-06T13:28:19.854Z,99.90
2018-09-06T13:30:48.199Z,99.90
2018-09-06T13:33:16.598Z,99.90
2018-09-06T13:35:45.023Z,99.90
2018-09-06T13:38:13.341Z,99.90
2018-09-06T13:40:42.446Z,99.90
2018-09-06T13:43:10.786Z,99.90
2018-09-06T13:45:39.217Z,99.90
2018-09-06T13:48:07.812Z,99.90
2018-09-06T13:50:36.157Z,99.90
2018-09-06T13:53:04.538Z,99.90
2018-09-06T13:55:33.122Z,99.90
2018-09-06T13:58:01.569Z,99.90
2018-09-06T14:00:29.915Z,99.90
2018-09-06T14:02:58.319Z,99.90
2018-09-06T14:05:26.705Z,99.90
2018-09-06T14:07:55.095Z,99.90
2018-09-06T14:10:23.501Z,99.90
2018-09-06T14:12:51.897Z,99.90
2018-09-06T14:15:20.270Z,99.90
2018-09-06T14:17:48.637Z,99.90
2018-09-06T14:20:17.195Z,99.90
2018-09-06T14:22:45.567Z,99.90
2018-09-06T14:25:13.939Z,99.90
2018-09-06T14:27:42.322Z,99.90
2018-09-06T14:30:10.692Z,99.90
2018-09-06T14:32:39.102Z,99.90
2018-09-06T14:35:07.505Z,99.90
2018-09-06T14:37:35.869Z,99.90
2018-09-06T14:40:04.255Z,99.90
2018-09-06T14:42:32.639Z,99.90
2018-09-06T14:45:01.017Z,99.90
2018-09-06T14:47:29.359Z,99.90
2018-09-06T14:49:57.815Z,99.90
2018-09-06T14:52:26.175Z,99.90
2018-09-06T14:54:54.527Z,99.90
2018-09-06T14:57:23.094Z,99.90
2018-09-06T14:59:51.452Z,99.90
2018-09-06T15:02:19.873Z,99.90
2018-09-06T15:04:48.242Z,99.90
2018-09-06T15:07:16.610Z,99.90
2018-09-06T15:09:44.989Z,99.90
2018-09-06T15:12:13.399Z,99.90
2018-09-06T15:14:41.745Z,99.90
2018-09-06T15:17:10.134Z,99.90
2018-09-06T15:19:38.481Z,99.90
2018-09-06T15:22:07.407Z,99.90
2018-09-06T15:24:35.800Z,99.90
2018-09-06T15:27:04.202Z,99.90
2018-09-06T15:29:32.790Z,99.90
2018-09-06T15:32:01.206Z,99.90
2018-09-06T15:34:29.614Z,99.90
2018-09-06T15:36:58.052Z,99.90
2018-09-06T15:39:26.444Z,99.90
2018-09-06T15:41:54.795Z,99.90
2018-09-06T15:44:23.321Z,99.90
2018-09-06T15:46:51.690Z,99.90
2018-09-06T15:49:20.118Z,99.90
2018-09-06T15:51:48.593Z,99.90
2018-09-06T15:54:16.942Z,99.90
2018-09-06T15:56:45.354Z,99.90
2018-09-06T15:59:13.870Z,99.90
2018-09-06T16:01:42.276Z,99.90
2018-09-06T16:04:10.627Z,99.90
2018-09-06T16:06:38.996Z,99.90
2018-09-06T16:09:07.567Z,99.90
2018-09-06T16:11:36.010Z,99.90
2018-09-06T16:14:04.407Z,99.90
2018-09-06T16:16:32.742Z,99.90
2018-09-06T16:19:01.355Z,99.90
2018-09-06T16:21:29.734Z,99.90
2018-09-06T16:23:58.081Z,99.90
2018-09-06T16:26:26.496Z,99.90
2018-09-06T16:28:54.857Z,99.90
2018-09-06T16:31:23.193Z,99.90
2018-09-06T16:33:51.628Z,99.90
2018-09-06T16:36:19.998Z,99.90
2018-09-06T16:38:48.556Z,99.90
2018-09-06T16:41:16.904Z,99.90
2018-09-06T16:43:45.248Z,99.90
2018-09-06T16:46:13.970Z,99.90
2018-09-06T16:48:42.379Z,99.90
2018-09-06T16:51:10.758Z,99.90
2018-09-06T16:53:39.220Z,99.90
2018-09-06T16:56:07.626Z,99.90
2018-09-06T16:58:35.995Z,99.90
2018-09-06T17:01:04.361Z,99.90
2018-09-06T17:03:32.754Z,99.90
2018-09-06T17:06:01.110Z,99.90
2018-09-06T17:08:29.463Z,99.90
2018-09-06T17:10:57.857Z,99.90
2018-09-06T17:13:26.226Z,99.90
2018-09-06T17:15:54.594Z,99.90
2018-09-06T17:18:23.049Z,99.90
2018-09-06T17:20:51.410Z,99.90
2018-09-06T17:23:19.786Z,99.90
2018-09-06T17:25:48.239Z,99.90
2018-09-06T17:28:16.621Z,99.90
2018-09-06T17:30:44.961Z,99.90
2018-09-06T17:33:13.520Z,99.90
2018-09-06T17:35:41.895Z,99.90
2018-09-06T17:38:10.263Z,99.90
2018-09-06T17:40:38.657Z,99.90
2018-09-06T17:43:07.078Z,99.90
2018-09-06T17:45:35.448Z,99.90
2018-09-06T17:48:03.910Z,99.90
2018-09-06T17:50:32.664Z,99.90
2018-09-06T17:53:01.198Z,99.90
2018-09-06T17:55:29.591Z,99.90
2018-09-06T17:57:57.966Z,99.90
2018-09-06T18:00:26.442Z,99.90
2018-09-06T18:02:54.867Z,99.90
2018-09-06T18:05:23.260Z,99.90
2018-09-06T18:07:51.664Z,99.90
2018-09-06T18:10:20.110Z,99.90
2018-09-06T18:12:48.678Z,99.90
2018-09-06T18:15:17.263Z,99.90
2018-09-06T18:17:45.767Z,99.90
2018-09-06T18:20:14.021Z,99.90
2018-09-06T18:22:42.408Z,99.90
2018-09-06T18:25:10.840Z,99.90
2018-09-06T18:27:39.282Z,99.90
2018-09-06T18:30:07.698Z,99.90
2018-09-06T18:32:36.226Z,99.90
2018-09-06T18:35:04.654Z,99.90
2018-09-06T18:37:33.312Z,99.90
2018-09-06T18:40:01.723Z,99.90
2018-09-06T18:42:30.131Z,99.90
2018-09-06T18:44:58.539Z,99.90
2018-09-06T18:47:26.997Z,99.90
2018-09-06T18:49:55.386Z,99.90
2018-09-06T18:52:23.770Z,99.90
2018-09-06T18:54:52.185Z,99.90
2018-09-06T18:57:20.600Z,99.90
2018-09-06T18:59:48.958Z,99.90
2018-09-06T19:02:17.378Z,99.90
2018-09-06T19:04:45.713Z,99.90
2018-09-06T19:07:14.077Z,99.90
2018-09-06T19:09:42.623Z,99.90
2018-09-06T19:12:10.985Z,99.90
2018-09-06T19:14:39.331Z,99.90
2018-09-06T19:17:07.729Z,99.90
2018-09-06T19:19:36.073Z,99.90
2018-09-06T19:22:06.130Z,99.90
2018-09-06T19:24:36.091Z,99.90
2018-09-06T19:27:04.675Z,99.90
2018-09-06T19:29:33.831Z,99.90
2018-09-06T19:32:03.318Z,99.90
2018-09-06T19:34:32.686Z,99.90
2018-09-06T19:37:01.107Z,99.90
2018-09-06T19:39:31.778Z,99.90
2018-09-06T19:42:01.472Z,99.90
2018-09-06T19:44:30.068Z,99.90
2018-09-06T19:46:59.584Z,99.90
2018-09-06T19:49:29.322Z,99.90
2018-09-06T19:51:59.089Z,99.90
2018-09-06T19:54:28.467Z,99.90
2018-09-06T19:56:58.138Z,99.90
2018-09-06T19:59:26.539Z,99.90
2018-09-06T20:01:55.105Z,99.90
2018-09-06T20:04:23.458Z,99.90
2018-09-06T20:06:51.826Z,99.90
2018-09-06T20:09:20.231Z,99.90
2018-09-06T20:11:48.607Z,99.90
2018-09-06T20:14:16.989Z,99.90
2018-09-06T20:16:45.404Z,99.90
2018-09-06T20:19:13.785Z,99.90
2018-09-06T20:21:42.347Z,99.90
2018-09-06T20:24:11.334Z,99.90
2018-09-06T20:26:39.701Z,99.90
2018-09-06T20:29:08.123Z,99.90
2018-09-06T20:31:36.650Z,99.90
2018-09-06T20:34:05.142Z,99.90
2018-09-06T20:36:33.550Z,99.90
2018-09-06T20:39:01.942Z,99.90
2018-09-06T20:41:30.464Z,99.90
2018-09-06T20:43:58.874Z,99.90
2018-09-06T20:46:27.278Z,99.90
2018-09-06T20:48:55.673Z,99.90
2018-09-06T20:51:24.033Z,99.90
2018-09-06T20:53:52.514Z,99.90
2018-09-06T20:56:20.859Z,99.90
2018-09-06T20:58:49.249Z,99.90
2018-09-06T21:01:17.679Z,99.90
2018-09-06T21:03:46.086Z,99.90
2018-09-06T21:06:14.518Z,99.90
2018-09-06T21:08:42.882Z,99.90
2018-09-06T21:11:11.262Z,99.90
2018-09-06T21:13:39.630Z,99.90
2018-09-06T21:16:08.240Z,99.90
2018-09-06T21:18:36.622Z,99.90
2018-09-06T21:21:04.976Z,99.90
2018-09-06T21:23:33.489Z,99.90
2018-09-06T21:26:01.879Z,99.90
2018-09-06T21:28:30.280Z,99.90
2018-09-06T21:30:58.686Z,99.90
2018-09-06T21:33:27.082Z,99.90
2018-09-06T21:35:56.773Z,99.90
2018-09-06T21:38:25.293Z,99.90
2018-09-06T21:40:53.771Z,99.90
2018-09-06T21:43:22.161Z,99.90
2018-09-06T21:45:51.190Z,99.90
2018-09-06T21:48:19.597Z,99.90
2018-09-06T21:50:48.134Z,99.90
2018-09-06T21:53:16.478Z,99.90
2018-09-06T21:55:44.830Z,99.90
2018-09-06T21:58:13.216Z,99.90
2018-09-06T22:00:41.610Z,99.90
2018-09-06T22:03:15.315Z,99.90
2018-09-06T22:05:43.695Z,99.90
2018-09-06T22:08:12.045Z,99.90
2018-09-06T22:10:40.591Z,99.90
2018-09-06T22:13:09.022Z,99.90
2018-09-06T22:15:37.393Z,99.90
2018-09-06T22:18:05.992Z,99.90
2018-09-06T22:20:34.353Z,99.90
2018-09-06T22:23:02.745Z,99.90
2018-09-06T22:25:31.156Z,99.90
2018-09-06T22:27:59.563Z,99.90
2018-09-06T22:30:28.934Z,99.90
2018-09-06T22:32:57.302Z,99.90
2018-09-06T22:35:25.671Z,99.90
2018-09-06T22:37:54.057Z,99.90
2018-09-06T22:40:22.471Z,99.90
2018-09-06T22:42:51.022Z,99.90
2018-09-06T22:45:19.388Z,99.90
2018-09-06T22:47:47.777Z,99.90
2018-09-06T22:50:16.220Z,99.90
2018-09-06T22:52:44.577Z,99.90
2018-09-06T22:55:13.144Z,99.90
2018-09-06T22:57:41.539Z,99.90
2018-09-06T23:00:09.893Z,99.90
2018-09-06T23:16:50.602Z,99.90
2018-09-06T23:19:19.226Z,99.90
2018-09-06T23:21:47.639Z,99.90
2018-09-06T23:24:16.049Z,99.90
2018-09-06T23:26:44.543Z,99.90
2018-09-06T23:29:12.976Z,99.90
2018-09-06T23:31:41.436Z,99.90
2018-09-06T23:34:09.855Z,99.90
2018-09-06T23:36:38.324Z,99.90
2018-09-06T23:39:07.313Z,99.90
2018-09-06T23:41:35.747Z,99.90
2018-09-06T23:44:04.290Z,99.90
2018-09-06T23:46:32.734Z,99.90
2018-09-06T23:49:01.103Z,99.90
2018-09-06T23:51:29.453Z,99.90
2018-09-06T23:53:57.851Z,99.90
2018-09-06T23:56:26.209Z,99.90
2018-09-06T23:58:54.557Z,99.90
